Delta Virtual Airport Information Service

Missoula International Airport

ICAO: KMSO Country: United States
Latitude: 46.9163 Longitude: -114.09
Latest Arrival : DAL1019 (D) (KSLC-KMSO) Latest Departure : DAL745 (D) (KMSO-KSLC)


WX CaptureLIVE
Data provided by noaa.gov | Fetched at 03:19:48

METAR : KMSO 030853Z 00000KT 10SM CLR 04/M01 A3015 RMK AO2 SLP216 T00441011 58003

TAF : KMSO 030520Z 0306/0406 31004KT P6SM SCT070 FM031200 30005KT P6SM BKN120


Runway Data for KMSO
Data provided by openaviationdata.com

Runway ID Mag Var Hdg Length Elevation Surface ILS Freq ILS Id ILS Slope
7 16 72° 4603 ft 3204 ft Asphalt -- -- --
11 16 113° 9487 ft 3204 ft Asphalt 109.3 IMSO 3
25 16 252° 4603 ft 3204 ft Asphalt -- -- --
29 16 293° 9487 ft 3204 ft Asphalt -- -- --

Missoula International Airport, United States
Use only for reference purposes



Not for navigational purposes.